Time;durP1;ratioP1;P1;durP2;ratioP2;P2;SDS_P1;SDS_P2;PMS_P1;PMS_P2;Temp;Humidity;BMP_temperature;BMP_pressure;BME280_temperature;BME280_humidity;BME280_pressure;Samples;Min_cycle;Max_cycle;Signal;HPM_P1;HPM_P2
2023/05/15 00:01:48;;;;;;;28.20;25.20;;;15.40;97.30;;;;;;5051932;28;20067;-73
2023/05/15 00:04:13;;;;;;;28.00;25.13;;;15.40;97.30;;;;;;5052870;28;20074;-71
2023/05/15 00:06:39;;;;;;;29.85;26.70;;;15.40;97.30;;;;;;5051667;28;20021;-71
2023/05/15 00:09:04;;;;;;;28.77;25.55;;;15.40;97.30;;;;;;5052905;28;20378;-72
2023/05/15 00:11:30;;;;;;;29.90;25.67;;;15.40;97.40;;;;;;5052962;28;20025;-72
2023/05/15 00:13:56;;;;;;;29.60;26.42;;;15.40;97.40;;;;;;5052642;28;20243;-72
2023/05/15 00:16:21;;;;;;;29.83;26.77;;;15.40;97.40;;;;;;5037011;28;20025;-73
2023/05/15 00:18:47;;;;;;;28.55;25.77;;;15.40;97.50;;;;;;5038773;28;20020;-68
2023/05/15 00:21:12;;;;;;;33.80;28.00;;;15.30;97.60;;;;;;5030248;28;20037;-72
2023/05/15 00:23:38;;;;;;;30.17;26.92;;;15.20;97.70;;;;;;5032161;28;20433;-73
2023/05/15 00:26:03;;;;;;;30.02;26.98;;;15.30;97.60;;;;;;5032708;28;20376;-73
2023/05/15 00:28:29;;;;;;;29.50;26.30;;;15.30;97.70;;;;;;5032439;28;20108;-73
2023/05/15 00:30:55;;;;;;;29.33;26.33;;;15.30;97.70;;;;;;5031795;28;20467;-73
2023/05/15 00:33:20;;;;;;;30.45;27.23;;;15.20;97.80;;;;;;5031514;28;20018;-73
2023/05/15 00:35:46;;;;;;;30.65;27.38;;;15.20;97.80;;;;;;5032435;28;20387;-72
2023/05/15 00:38:12;;;;;;;31.42;27.65;;;15.20;97.90;;;;;;5031415;28;20100;-73
2023/05/15 00:40:39;;;;;;;31.88;28.63;;;15.10;98.00;;;;;;5032575;28;20462;-73
2023/05/15 00:43:06;;;;;;;34.55;29.63;;;15.10;98.00;;;;;;5032462;28;20047;-72
2023/05/15 00:45:33;;;;;;;32.10;28.80;;;15.20;98.10;;;;;;5032567;28;20013;-70
2023/05/15 00:48:00;;;;;;;32.55;29.45;;;15.10;98.10;;;;;;5032537;28;20032;-70
2023/05/15 00:50:26;;;;;;;33.33;30.02;;;15.20;98.10;;;;;;5032544;28;20075;-72
2023/05/15 00:52:52;;;;;;;33.63;29.30;;;15.10;98.10;;;;;;5032489;28;20029;-71
2023/05/15 00:55:17;;;;;;;31.95;28.75;;;15.10;98.20;;;;;;5032584;28;20051;-73
2023/05/15 00:57:43;;;;;;;33.45;30.05;;;15.00;98.20;;;;;;5032224;28;20034;-72
2023/05/15 01:00:09;;;;;;;33.47;30.08;;;15.10;98.20;;;;;;5032428;28;20052;-69
2023/05/15 01:02:38;;;;;;;32.80;29.50;;;15.00;98.20;;;;;;5032216;28;20080;-71
2023/05/15 01:05:06;;;;;;;34.90;31.20;;;15.00;98.20;;;;;;5032437;28;20108;-72
2023/05/15 01:07:39;;;;;;;32.25;29.05;;;15.00;98.30;;;;;;5032345;28;20483;-73
2023/05/15 01:10:06;;;;;;;35.75;32.13;;;15.00;98.40;;;;;;5032559;28;20025;-73
2023/05/15 01:12:33;;;;;;;35.38;31.73;;;14.90;98.30;;;;;;5033074;28;20041;-72
2023/05/15 01:14:58;;;;;;;33.70;30.20;;;15.00;98.40;;;;;;5036069;28;20022;-71
2023/05/15 01:17:24;;;;;;;35.70;31.98;;;14.90;98.60;;;;;;5035699;28;20091;-72
2023/05/15 01:19:51;;;;;;;36.83;32.78;;;14.90;98.40;;;;;;5036195;28;20463;-72
2023/05/15 01:22:38;;;;;;;37.47;32.33;;;14.90;98.50;;;;;;5035674;28;20560;-71
2023/05/15 01:25:22;;;;;;;36.20;32.60;;;14.90;98.50;;;;;;5035812;28;20076;-74
2023/05/15 01:27:51;;;;;;;38.28;34.15;;;14.90;98.60;;;;;;5035272;28;20033;-74
2023/05/15 01:30:33;;;;;;;36.22;32.53;;;14.90;98.60;;;;;;5035959;28;20379;-74
2023/05/15 01:33:06;;;;;;;39.28;35.13;;;14.90;98.60;;;;;;5035552;28;20372;-73
2023/05/15 01:35:43;;;;;;;36.92;33.22;;;14.80;98.50;;;;;;5035601;28;20140;-73
2023/05/15 01:38:28;;;;;;;37.75;34.03;;;14.90;98.60;;;;;;5035441;28;20021;-74
2023/05/15 01:41:21;;;;;;;38.40;34.42;;;14.80;98.60;;;;;;5035275;28;20048;-72
2023/05/15 01:43:51;;;;;;;39.00;34.97;;;14.70;98.60;;;;;;5032521;28;20116;-75
2023/05/15 01:46:20;;;;;;;38.42;34.35;;;14.80;98.70;;;;;;5035205;28;20025;-74
2023/05/15 01:48:48;;;;;;;38.40;34.58;;;14.70;98.70;;;;;;5035624;28;20109;-74
2023/05/15 01:51:15;;;;;;;37.10;33.35;;;14.70;98.70;;;;;;5035289;28;20021;-74
2023/05/15 01:53:42;;;;;;;37.42;33.67;;;14.70;98.80;;;;;;5035478;28;20025;-74
2023/05/15 01:56:12;;;;;;;38.47;34.63;;;14.70;98.80;;;;;;5034811;28;20091;-72
2023/05/15 01:58:39;;;;;;;37.47;33.67;;;14.70;98.80;;;;;;5035684;28;20030;-74
2023/05/15 02:01:05;;;;;;;36.20;32.63;;;14.70;98.70;;;;;;5034954;28;20025;-74
2023/05/15 02:03:33;;;;;;;38.70;34.72;;;14.60;98.70;;;;;;5035032;28;20402;-74
2023/05/15 02:06:03;;;;;;;36.97;33.22;;;14.60;98.70;;;;;;5035113;28;20026;-74
2023/05/15 02:08:30;;;;;;;38.22;34.40;;;14.60;98.70;;;;;;5034919;28;20032;-74
2023/05/15 02:10:59;;;;;;;36.47;32.92;;;14.60;98.70;;;;;;5034857;28;20017;-74
2023/05/15 02:13:26;;;;;;;37.88;34.15;;;14.60;98.80;;;;;;5034757;28;20053;-73
2023/05/15 02:15:52;;;;;;;39.70;35.70;;;14.60;98.70;;;;;;5034174;28;20026;-74
2023/05/15 02:18:17;;;;;;;41.53;37.33;;;14.50;98.70;;;;;;5034739;28;20356;-74
2023/05/15 02:20:43;;;;;;;38.95;35.00;;;14.50;98.80;;;;;;5034902;28;20045;-74
2023/05/15 02:23:09;;;;;;;41.67;37.33;;;14.50;98.80;;;;;;5034567;28;20033;-74
2023/05/15 02:25:55;;;;;;;43.00;38.40;;;14.50;98.80;;;;;;5033655;28;20018;-75
2023/05/15 02:28:30;;;;;;;45.70;40.85;;;14.40;98.90;;;;;;5033818;28;20052;-74
2023/05/15 02:31:22;;;;;;;46.70;41.53;;;14.40;98.80;;;;;;5034728;28;20033;-74
2023/05/15 02:34:21;;;;;;;47.15;42.13;;;14.40;99.00;;;;;;5034558;28;20390;-73
2023/05/15 02:36:50;;;;;;;50.55;45.05;;;14.40;99.00;;;;;;5015574;28;20022;-74
2023/05/15 02:39:17;;;;;;;49.88;44.63;;;14.40;99.10;;;;;;5034016;28;20470;-73
2023/05/15 02:41:45;;;;;;;50.20;44.92;;;14.40;99.10;;;;;;5034414;28;20048;-74
2023/05/15 02:44:12;;;;;;;50.88;45.65;;;14.40;99.10;;;;;;5034275;28;20580;-74
2023/05/15 02:46:38;;;;;;;50.15;44.97;;;14.40;99.10;;;;;;5034963;28;20029;-73
2023/05/15 02:49:04;;;;;;;50.60;45.13;;;14.30;99.10;;;;;;5034171;28;20021;-74
2023/05/15 02:51:30;;;;;;;50.35;45.15;;;14.40;99.10;;;;;;5034094;28;20037;-73
2023/05/15 02:53:58;;;;;;;50.88;45.60;;;14.30;99.10;;;;;;5034012;28;20495;-74
2023/05/15 02:56:24;;;;;;;50.90;45.65;;;14.30;99.10;;;;;;5034000;28;20021;-74
2023/05/15 02:58:50;;;;;;;50.58;45.28;;;14.20;99.10;;;;;;5034050;28;20025;-73
2023/05/15 03:01:16;;;;;;;53.13;47.45;;;14.20;99.10;;;;;;5034105;28;20028;-74
2023/05/15 03:03:41;;;;;;;52.58;47.15;;;14.20;99.10;;;;;;5033940;28;20030;-74
2023/05/15 03:06:07;;;;;;;51.17;45.88;;;14.20;99.10;;;;;;5033883;28;20079;-71
2023/05/15 03:08:32;;;;;;;52.53;46.95;;;14.20;99.10;;;;;;5033603;28;20497;-74
2023/05/15 03:10:58;;;;;;;52.42;47.03;;;14.20;99.10;;;;;;5034058;28;20036;-74
2023/05/15 03:13:23;;;;;;;51.95;46.47;;;14.20;99.10;;;;;;5033623;28;20075;-74
2023/05/15 03:15:49;;;;;;;50.38;45.10;;;14.10;99.10;;;;;;5032539;28;20109;-74
2023/05/15 03:18:15;;;;;;;50.75;45.58;;;14.10;99.00;;;;;;5033539;28;20088;-74
2023/05/15 03:20:41;;;;;;;50.92;45.60;;;14.10;99.00;;;;;;5033846;28;20479;-74
2023/05/15 03:23:06;;;;;;;51.50;46.05;;;14.10;99.10;;;;;;5033585;28;20045;-74
2023/05/15 03:25:32;;;;;;;53.03;47.35;;;14.10;99.10;;;;;;5033343;28;20387;-73
2023/05/15 03:27:57;;;;;;;54.13;48.45;;;14.10;99.20;;;;;;5033324;28;20044;-74
2023/05/15 03:30:23;;;;;;;52.45;46.85;;;14.10;99.10;;;;;;5033441;28;20032;-74
2023/05/15 03:32:49;;;;;;;54.70;48.72;;;14.00;99.10;;;;;;5033449;28;20029;-74
2023/05/15 03:35:15;;;;;;;51.83;46.28;;;14.00;99.20;;;;;;5033216;28;20021;-74
2023/05/15 03:37:40;;;;;;;55.05;48.28;;;14.10;99.20;;;;;;5033281;28;20025;-74
2023/05/15 03:40:07;;;;;;;50.25;45.08;;;14.00;99.20;;;;;;5033425;28;20044;-74
2023/05/15 03:42:33;;;;;;;49.78;44.58;;;14.00;99.10;;;;;;5033337;28;20043;-74
2023/05/15 03:44:58;;;;;;;52.72;46.83;;;13.90;99.20;;;;;;5032453;28;20097;-73
2023/05/15 03:47:24;;;;;;;49.83;44.40;;;13.90;99.20;;;;;;5033168;28;20028;-73
2023/05/15 03:49:50;;;;;;;50.05;44.72;;;14.00;99.40;;;;;;5033185;28;20018;-74
2023/05/15 03:52:15;;;;;;;51.45;45.67;;;14.00;99.20;;;;;;5032898;28;20037;-73
2023/05/15 03:54:41;;;;;;;50.28;45.05;;;14.00;99.50;;;;;;5033008;28;20053;-73
2023/05/15 03:57:07;;;;;;;52.85;46.97;;;14.00;99.40;;;;;;5033413;28;20044;-73
2023/05/15 03:59:33;;;;;;;57.67;50.92;;;13.90;99.50;;;;;;5032849;28;20026;-73
2023/05/15 04:01:58;;;;;;;55.45;49.38;;;13.90;99.60;;;;;;5033059;28;20095;-73
2023/05/15 04:04:24;;;;;;;57.22;48.75;;;13.90;99.70;;;;;;5032956;28;20100;-73
2023/05/15 04:06:50;;;;;;;54.35;48.20;;;13.90;99.80;;;;;;5032938;28;20017;-73
2023/05/15 04:09:16;;;;;;;56.90;47.40;;;13.90;99.90;;;;;;5032952;28;20064;-73
2023/05/15 04:11:41;;;;;;;51.30;45.67;;;13.90;99.80;;;;;;5033007;28;20026;-74
2023/05/15 04:14:07;;;;;;;58.72;49.13;;;13.90;99.90;;;;;;5032775;28;20539;-72
2023/05/15 04:16:33;;;;;;;58.30;50.47;;;13.90;99.90;;;;;;5032749;28;20120;-74
2023/05/15 04:18:58;;;;;;;60.03;49.70;;;13.90;99.90;;;;;;5033002;28;20045;-74
2023/05/15 04:21:24;;;;;;;61.17;50.47;;;13.90;99.90;;;;;;5032485;28;20506;-74
2023/05/15 04:23:50;;;;;;;65.60;52.20;;;13.90;99.90;;;;;;5032840;28;20026;-74
2023/05/15 04:26:15;;;;;;;66.85;51.25;;;13.90;99.90;;;;;;5032551;28;20033;-74
2023/05/15 04:28:41;;;;;;;68.88;54.40;;;13.90;99.90;;;;;;5032821;28;20095;-74
2023/05/15 04:31:06;;;;;;;68.30;54.08;;;13.90;99.90;;;;;;5032545;28;20030;-73
2023/05/15 04:33:32;;;;;;;80.30;59.10;;;13.90;99.90;;;;;;5032706;28;20029;-74
2023/05/15 04:35:58;;;;;;;78.47;58.17;;;13.80;99.90;;;;;;5032305;28;20113;-74
2023/05/15 04:38:23;;;;;;;72.70;59.40;;;13.50;99.90;;;;;;5032713;28;20030;-73
2023/05/15 04:40:50;;;;;;;75.70;58.92;;;13.20;99.90;;;;;;5032628;28;20467;-73
2023/05/15 04:43:15;;;;;;;76.97;59.65;;;13.00;99.90;;;;;;5032754;28;20030;-73
2023/05/15 04:45:41;;;;;;;78.88;60.15;;;12.80;99.90;;;;;;5032374;28;20104;-74
2023/05/15 04:48:06;;;;;;;78.18;59.85;;;12.70;99.90;;;;;;5034622;28;20079;-73
2023/05/15 04:50:32;;;;;;;75.18;57.30;;;12.70;99.90;;;;;;5036231;28;20017;-72
2023/05/15 04:52:58;;;;;;;84.80;59.03;;;12.70;99.90;;;;;;5036670;28;20033;-72
2023/05/15 04:55:23;;;;;;;83.82;57.95;;;12.80;99.90;;;;;;5036424;28;20025;-73
2023/05/15 04:57:50;;;;;;;74.20;53.10;;;12.80;99.90;;;;;;5037269;28;20470;-71
2023/05/15 05:00:15;;;;;;;78.38;54.85;;;13.00;99.90;;;;;;5043448;28;20112;-71
2023/05/15 05:02:44;;;;;;;76.57;54.28;;;13.20;99.90;;;;;;5041437;28;20117;-71
2023/05/15 05:05:10;;;;;;;78.20;53.47;;;13.40;99.90;;;;;;5043497;28;20036;-71
2023/05/15 05:07:35;;;;;;;81.90;53.13;;;13.50;99.90;;;;;;5050020;28;20033;-71
2023/05/15 05:10:04;;;;;;;78.57;53.67;;;13.60;99.90;;;;;;5038202;28;20108;-70
2023/05/15 05:12:30;;;;;;;75.40;51.38;;;13.60;99.90;;;;;;5049812;28;20211;-70
2023/05/15 05:14:55;;;;;;;73.55;51.28;;;13.70;99.90;;;;;;5037359;28;20044;-70
2023/05/15 05:17:21;;;;;;;78.03;55.67;;;13.80;99.90;;;;;;5035558;28;20022;-70
2023/05/15 05:19:47;;;;;;;87.60;58.28;;;13.70;99.90;;;;;;5038229;28;20043;-71
2023/05/15 05:22:12;;;;;;;76.60;53.90;;;13.80;99.90;;;;;;5038670;28;20479;-71
2023/05/15 05:24:38;;;;;;;88.20;60.20;;;13.80;99.90;;;;;;5042969;28;20021;-71
2023/05/15 05:27:04;;;;;;;86.25;57.92;;;13.90;99.90;;;;;;5045757;28;20118;-71
2023/05/15 05:29:30;;;;;;;85.78;58.08;;;13.90;99.90;;;;;;5053689;28;20366;-70
2023/05/15 05:31:57;;;;;;;88.80;58.10;;;13.90;99.90;;;;;;5055943;28;20028;-70
2023/05/15 05:34:22;;;;;;;85.47;55.75;;;13.90;99.90;;;;;;5055245;28;20041;-71
2023/05/15 05:36:49;;;;;;;84.22;55.65;;;13.90;99.90;;;;;;5055228;28;20539;-72
2023/05/15 05:39:16;;;;;;;87.60;58.30;;;13.90;99.90;;;;;;5055648;28;20485;-71
2023/05/15 05:41:42;;;;;;;89.15;59.38;;;14.00;99.90;;;;;;5045494;28;20083;-71
2023/05/15 05:44:08;;;;;;;91.63;58.70;;;14.00;99.90;;;;;;5035953;28;20025;-71
2023/05/15 05:46:34;;;;;;;89.35;59.85;;;14.00;99.90;;;;;;5052005;28;20029;-72
2023/05/15 05:48:59;;;;;;;89.65;60.65;;;14.00;99.90;;;;;;5043763;28;20030;-73
2023/05/15 05:51:25;;;;;;;97.28;62.90;;;14.10;99.90;;;;;;5044329;28;20104;-71
2023/05/15 05:53:51;;;;;;;98.68;64.55;;;14.10;99.90;;;;;;5035028;28;20091;-71
2023/05/15 05:56:16;;;;;;;97.82;64.22;;;14.20;99.90;;;;;;5038583;28;20033;-72
2023/05/15 05:58:42;;;;;;;97.72;65.22;;;14.20;99.90;;;;;;5044196;28;20061;-71
2023/05/15 06:01:08;;;;;;;90.38;60.95;;;14.20;99.90;;;;;;5047709;28;20036;-72
2023/05/15 06:03:34;;;;;;;90.90;61.05;;;14.20;99.90;;;;;;5053396;28;20029;-72
2023/05/15 06:06:00;;;;;;;100.22;65.13;;;14.10;99.90;;;;;;5070444;28;20462;-72
2023/05/15 06:08:27;;;;;;;97.75;62.85;;;14.10;99.90;;;;;;5049686;28;20491;-72
2023/05/15 06:10:53;;;;;;;97.85;65.28;;;14.20;99.90;;;;;;5032958;28;20558;-71
2023/05/15 06:13:19;;;;;;;91.47;60.80;;;14.20;99.90;;;;;;5050379;28;20111;-72
2023/05/15 06:15:45;;;;;;;106.95;69.68;;;14.20;99.90;;;;;;5044578;28;20026;-71
2023/05/15 06:18:10;;;;;;;105.30;70.20;;;14.20;99.90;;;;;;5046317;28;20051;-72
2023/05/15 06:20:37;;;;;;;118.93;76.63;;;14.20;99.90;;;;;;5074515;28;20134;-72
2023/05/15 06:23:03;;;;;;;98.07;65.78;;;14.30;99.90;;;;;;5039579;28;20041;-72
2023/05/15 06:25:28;;;;;;;104.72;68.20;;;14.20;99.90;;;;;;5036529;28;20025;-72
2023/05/15 06:27:54;;;;;;;110.78;70.55;;;14.30;99.90;;;;;;5034334;28;20065;-73
2023/05/15 06:30:20;;;;;;;104.20;69.20;;;14.30;99.90;;;;;;5046195;28;20071;-73
2023/05/15 06:32:46;;;;;;;101.63;71.28;;;14.30;99.90;;;;;;5053181;28;20025;-72
2023/05/15 06:35:11;;;;;;;117.55;74.25;;;14.30;99.90;;;;;;5054393;28;20044;-72
2023/05/15 06:37:37;;;;;;;117.85;76.47;;;14.30;99.90;;;;;;5052758;28;20033;-72
2023/05/15 06:40:04;;;;;;;118.93;75.53;;;14.30;99.90;;;;;;5053943;28;20443;-72
2023/05/15 06:42:30;;;;;;;114.70;74.05;;;14.30;99.90;;;;;;5046542;28;20549;-71
2023/05/15 06:44:56;;;;;;;112.40;73.20;;;14.30;99.90;;;;;;5039803;28;20063;-71
2023/05/15 06:47:21;;;;;;;116.22;78.10;;;14.30;99.90;;;;;;5040922;28;20045;-72
2023/05/15 06:49:47;;;;;;;132.10;84.45;;;14.40;99.90;;;;;;5053982;28;20147;-72
2023/05/15 06:52:13;;;;;;;119.47;77.95;;;14.40;99.90;;;;;;5053046;28;20029;-72
2023/05/15 06:54:42;;;;;;;122.95;79.03;;;14.40;99.90;;;;;;5052028;28;20487;-72
2023/05/15 06:57:07;;;;;;;123.28;80.07;;;14.40;99.90;;;;;;5053727;28;20102;-71
2023/05/15 06:59:34;;;;;;;125.90;77.35;;;14.40;99.90;;;;;;5053615;28;20550;-72
2023/05/15 07:02:01;;;;;;;130.98;81.03;;;14.50;99.90;;;;;;5044780;28;20028;-72
2023/05/15 07:04:27;;;;;;;126.00;80.95;;;14.50;99.90;;;;;;5032020;28;20029;-71
2023/05/15 07:06:53;;;;;;;142.32;88.47;;;14.60;99.90;;;;;;5034120;28;20018;-72
2023/05/15 07:09:18;;;;;;;143.32;88.82;;;14.60;99.90;;;;;;5041964;28;20044;-72
2023/05/15 07:11:44;;;;;;;140.25;86.60;;;14.60;99.90;;;;;;5033503;28;20029;-71
2023/05/15 07:14:09;;;;;;;133.18;83.03;;;14.60;99.90;;;;;;5031219;28;20025;-72
2023/05/15 07:16:35;;;;;;;133.38;85.72;;;14.60;99.90;;;;;;5031245;28;20381;-72
2023/05/15 07:19:01;;;;;;;146.20;89.28;;;14.60;99.90;;;;;;5033558;28;20466;-72
2023/05/15 07:21:26;;;;;;;132.38;82.35;;;14.70;99.90;;;;;;5033619;28;20518;-72
2023/05/15 07:23:52;;;;;;;147.73;89.70;;;14.70;99.90;;;;;;5053320;28;20036;-72
2023/05/15 07:26:17;;;;;;;151.05;91.10;;;14.70;99.90;;;;;;5055528;28;20112;-72
2023/05/15 07:28:43;;;;;;;149.70;90.80;;;14.70;99.90;;;;;;5047989;28;20041;-72
2023/05/15 07:31:08;;;;;;;156.73;94.60;;;14.70;99.90;;;;;;5065417;28;20059;-72
2023/05/15 07:33:34;;;;;;;154.07;95.55;;;14.70;99.90;;;;;;5056417;28;20048;-72
2023/05/15 07:36:00;;;;;;;144.15;89.25;;;14.80;99.90;;;;;;5061834;28;20107;-72
2023/05/15 07:38:25;;;;;;;153.00;93.32;;;14.80;99.90;;;;;;5059851;28;20079;-73
2023/05/15 07:40:51;;;;;;;155.13;97.30;;;14.80;99.90;;;;;;5066692;28;20424;-72
2023/05/15 07:43:17;;;;;;;138.63;88.45;;;14.90;99.90;;;;;;5043616;28;20505;-73
2023/05/15 07:45:42;;;;;;;147.48;91.50;;;14.90;99.90;;;;;;5065777;28;20674;-73
2023/05/15 07:48:18;;;;;;;137.48;86.75;;;14.90;99.90;;;;;;5061035;28;20071;-73
2023/05/15 07:50:45;;;;;;;141.70;87.20;;;15.00;99.90;;;;;;5057338;28;20060;-72
2023/05/15 07:53:17;;;;;;;141.68;88.55;;;15.00;99.90;;;;;;5053415;28;20044;-72
2023/05/15 07:55:43;;;;;;;131.30;80.45;;;15.00;99.90;;;;;;5065584;28;20024;-72
2023/05/15 07:58:09;;;;;;;132.63;85.28;;;15.00;99.90;;;;;;5060904;28;20036;-72
2023/05/15 08:00:35;;;;;;;140.05;88.03;;;15.10;99.90;;;;;;5058322;28;20497;-72
2023/05/15 08:03:01;;;;;;;133.88;83.15;;;15.10;99.90;;;;;;5058440;28;20079;-72
2023/05/15 08:05:28;;;;;;;133.00;81.05;;;15.10;99.90;;;;;;5037540;28;20367;-72
2023/05/15 08:07:54;;;;;;;120.97;78.70;;;15.20;99.90;;;;;;5061829;28;20046;-72
2023/05/15 08:10:20;;;;;;;114.95;77.97;;;15.20;99.90;;;;;;5059975;28;20052;-72
2023/05/15 08:12:47;;;;;;;123.25;81.75;;;15.20;99.90;;;;;;5052148;28;20501;-72
2023/05/15 08:15:13;;;;;;;118.88;79.68;;;15.20;99.90;;;;;;5052695;28;20017;-72
2023/05/15 08:17:39;;;;;;;124.82;79.05;;;15.30;99.90;;;;;;5050933;28;20027;-72
2023/05/15 08:20:06;;;;;;;125.07;83.05;;;15.30;99.90;;;;;;5061653;28;20023;-72
2023/05/15 08:22:31;;;;;;;116.38;79.68;;;15.30;99.90;;;;;;5056113;28;20049;-72
2023/05/15 08:24:59;;;;;;;110.63;75.18;;;15.30;99.90;;;;;;5071697;28;20021;-72
2023/05/15 08:27:25;;;;;;;111.15;78.70;;;15.30;99.90;;;;;;5060758;28;20028;-72
2023/05/15 08:29:51;;;;;;;110.32;73.05;;;15.40;99.90;;;;;;5065126;28;20033;-74
2023/05/15 08:32:17;;;;;;;107.18;71.47;;;15.40;99.90;;;;;;5069157;28;20033;-72
2023/05/15 08:34:42;;;;;;;101.10;69.70;;;15.40;99.90;;;;;;5058330;28;20108;-71
2023/05/15 08:37:08;;;;;;;97.53;66.78;;;15.40;99.90;;;;;;5070386;28;20118;-71
2023/05/15 08:39:33;;;;;;;100.10;68.53;;;15.40;99.90;;;;;;5062223;28;20116;-72
2023/05/15 08:42:26;;;;;;;98.32;66.22;;;15.40;99.90;;;;;;5054403;28;20572;-70
2023/05/15 08:44:52;;;;;;;92.18;64.00;;;15.50;99.90;;;;;;5051085;28;20025;-70
2023/05/15 08:47:19;;;;;;;94.07;63.80;;;15.50;99.90;;;;;;5066618;28;20025;-70
2023/05/15 08:49:45;;;;;;;87.20;62.28;;;15.50;99.90;;;;;;5063827;28;20025;-69
2023/05/15 08:52:11;;;;;;;93.88;63.88;;;15.60;99.90;;;;;;5067015;28;20024;-70
2023/05/15 08:54:39;;;;;;;90.97;60.92;;;15.60;99.90;;;;;;5056650;28;20036;-70
2023/05/15 08:57:05;;;;;;;87.45;62.30;;;15.60;99.90;;;;;;5048123;28;20446;-70
2023/05/15 08:59:31;;;;;;;86.80;60.25;;;15.60;99.90;;;;;;5067311;28;20078;-70
2023/05/15 09:01:56;;;;;;;85.13;61.10;;;15.70;99.90;;;;;;5065151;28;20071;-70
2023/05/15 09:04:22;;;;;;;88.57;61.40;;;15.70;99.90;;;;;;5051718;28;20466;-71
2023/05/15 09:06:48;;;;;;;86.20;59.97;;;15.70;99.90;;;;;;5049549;28;20104;-71
2023/05/15 09:09:15;;;;;;;89.55;62.67;;;15.70;99.90;;;;;;5055667;28;20052;-70
2023/05/15 09:11:46;;;;;;;90.20;62.35;;;15.80;99.90;;;;;;5055646;28;20496;-71
2023/05/15 09:14:11;;;;;;;89.95;60.03;;;15.80;99.90;;;;;;5055978;28;20100;-71
2023/05/15 09:16:38;;;;;;;89.38;61.30;;;15.80;99.90;;;;;;5054881;28;20117;-71
2023/05/15 09:19:05;;;;;;;89.40;61.20;;;15.80;99.90;;;;;;5055118;28;20020;-71
2023/05/15 09:21:31;;;;;;;90.47;59.92;;;15.80;99.90;;;;;;5055696;28;20033;-71
2023/05/15 09:24:15;;;;;;;94.95;63.92;;;15.80;99.90;;;;;;5056060;28;20100;-71
2023/05/15 09:26:41;;;;;;;103.55;66.75;;;15.80;99.90;;;;;;5055395;28;20029;-71
2023/05/15 09:29:08;;;;;;;100.78;65.25;;;15.80;99.90;;;;;;5060843;28;20055;-71
2023/05/15 09:31:34;;;;;;;97.53;64.03;;;15.80;99.90;;;;;;5060309;28;20559;-71
2023/05/15 09:34:03;;;;;;;107.63;69.38;;;15.90;99.90;;;;;;5052389;28;20036;-71
2023/05/15 09:36:29;;;;;;;109.57;70.00;;;15.90;99.90;;;;;;5067251;28;20033;-71
2023/05/15 09:39:00;;;;;;;115.22;74.93;;;15.90;99.90;;;;;;5058796;28;20027;-71
2023/05/15 09:41:26;;;;;;;110.30;75.03;;;15.90;99.90;;;;;;5062756;28;20028;-71
2023/05/15 09:43:55;;;;;;;117.95;74.45;;;16.00;99.90;;;;;;5066816;28;20037;-71
2023/05/15 09:46:21;;;;;;;121.43;75.35;;;16.00;99.90;;;;;;5049103;28;20029;-72
2023/05/15 09:48:47;;;;;;;114.50;71.05;;;15.90;99.90;;;;;;5054366;28;20611;-73
2023/05/15 09:51:17;;;;;;;114.60;74.72;;;16.00;99.90;;;;;;5053915;28;20146;-72
2023/05/15 09:53:51;;;;;;;112.75;74.03;;;16.00;99.90;;;;;;5055027;28;20044;-72
2023/05/15 09:56:17;;;;;;;111.50;73.07;;;16.00;99.90;;;;;;5041114;28;20037;-72
2023/05/15 09:58:57;;;;;;;111.88;71.60;;;16.00;99.90;;;;;;5034237;28;20025;-72
2023/05/15 10:01:24;;;;;;;106.57;67.22;;;16.10;99.90;;;;;;5035016;28;20033;-71
2023/05/15 10:04:00;;;;;;;115.30;71.63;;;16.10;99.90;;;;;;5035073;28;20096;-72
2023/05/15 10:06:26;;;;;;;98.95;61.38;;;16.10;99.90;;;;;;5035100;28;20045;-71
2023/05/15 10:08:55;;;;;;;98.03;58.28;;;16.10;99.90;;;;;;5034858;28;20513;-72
2023/05/15 10:11:23;;;;;;;105.07;59.78;;;16.10;99.90;;;;;;5035169;28;20440;-72
2023/05/15 10:13:48;;;;;;;97.80;57.53;;;16.10;99.90;;;;;;5033677;28;20029;-71
2023/05/15 10:16:15;;;;;;;95.85;57.58;;;16.10;99.90;;;;;;5034994;28;20467;-71
2023/05/15 10:18:43;;;;;;;102.47;58.22;;;16.20;99.90;;;;;;5034849;28;20082;-71
2023/05/15 10:21:09;;;;;;;105.82;60.10;;;16.10;99.90;;;;;;5034885;28;20021;-71
2023/05/15 10:23:36;;;;;;;99.65;58.28;;;16.20;99.90;;;;;;5034618;28;20027;-71
2023/05/15 10:26:17;;;;;;;106.30;61.45;;;16.10;99.90;;;;;;5034696;28;20382;-72
2023/05/15 10:28:45;;;;;;;95.55;57.65;;;16.20;99.90;;;;;;5034361;28;20029;-71
2023/05/15 10:31:11;;;;;;;94.07;56.80;;;16.20;99.90;;;;;;5034842;28;20036;-72
2023/05/15 10:33:38;;;;;;;105.07;59.88;;;16.20;99.90;;;;;;5033116;28;20499;-71
2023/05/15 10:36:05;;;;;;;106.07;59.88;;;16.20;99.90;;;;;;5034576;28;20049;-71
2023/05/15 10:38:31;;;;;;;97.63;59.20;;;16.20;99.90;;;;;;5034052;28;20033;-72
2023/05/15 10:40:59;;;;;;;101.63;59.60;;;16.20;99.90;;;;;;5034407;28;20032;-72
2023/05/15 10:43:27;;;;;;;102.68;61.88;;;16.20;99.90;;;;;;5034407;28;20479;-71
2023/05/15 10:45:54;;;;;;;93.18;56.70;;;16.20;99.90;;;;;;5033460;28;20018;-71
2023/05/15 10:48:20;;;;;;;93.05;53.25;;;16.30;99.90;;;;;;5034113;28;20028;-72
2023/05/15 10:50:47;;;;;;;86.40;52.13;;;16.30;99.90;;;;;;5034358;28;20112;-72
2023/05/15 10:53:13;;;;;;;90.20;53.70;;;16.20;99.90;;;;;;5032701;28;20082;-72
2023/05/15 10:55:40;;;;;;;92.93;55.03;;;16.30;99.90;;;;;;5033509;28;20033;-72
2023/05/15 10:58:09;;;;;;;85.40;52.97;;;16.30;99.90;;;;;;5034089;28;20056;-72
2023/05/15 11:00:41;;;;;;;83.45;52.17;;;16.30;99.90;;;;;;5033936;28;20110;-72
2023/05/15 11:03:07;;;;;;;77.75;49.35;;;16.30;99.90;;;;;;5033824;28;20331;-72
2023/05/15 11:06:10;;;;;;;80.97;49.78;;;16.30;99.90;;;;;;5034197;28;20524;-71
2023/05/15 11:08:37;;;;;;;87.28;51.10;;;16.30;99.90;;;;;;5033878;28;20060;-71
2023/05/15 11:11:03;;;;;;;83.40;50.05;;;16.30;99.90;;;;;;5033768;28;20022;-72
2023/05/15 11:14:03;;;;;;;85.80;50.10;;;16.30;99.90;;;;;;5033753;28;20021;-72
2023/05/15 11:16:53;;;;;;;82.57;49.20;;;16.20;99.90;;;;;;5033661;28;20029;-71
2023/05/15 11:19:43;;;;;;;80.38;49.15;;;16.30;99.90;;;;;;5033497;28;20030;-72
2023/05/15 11:22:21;;;;;;;81.15;46.85;;;16.20;99.90;;;;;;5033400;28;20132;-72
2023/05/15 11:25:03;;;;;;;84.45;48.38;;;16.20;99.90;;;;;;5033421;28;20023;-71
2023/05/15 11:27:37;;;;;;;76.65;46.55;;;16.30;99.90;;;;;;5032190;28;20044;-72
2023/05/15 11:30:04;;;;;;;85.38;49.13;;;16.30;99.90;;;;;;5033467;28;20037;-72
2023/05/15 11:32:45;;;;;;;73.00;46.17;;;16.30;99.90;;;;;;5033751;28;20144;-71
2023/05/15 11:35:20;;;;;;;66.10;40.40;;;16.30;99.90;;;;;;5032995;28;20022;-71
2023/05/15 11:37:53;;;;;;;59.67;38.50;;;16.30;99.90;;;;;;5033271;28;20061;-72
2023/05/15 11:40:20;;;;;;;56.17;36.83;;;16.40;99.90;;;;;;5033096;28;20029;-72
2023/05/15 11:43:06;;;;;;;58.72;38.33;;;16.30;99.90;;;;;;5032092;28;20292;-72
2023/05/15 11:45:36;;;;;;;54.30;34.80;;;16.40;99.90;;;;;;5033141;28;20112;-72
2023/05/15 11:48:05;;;;;;;51.80;33.97;;;16.40;99.90;;;;;;5033206;28;20463;-72
2023/05/15 11:50:35;;;;;;;50.60;34.15;;;16.40;99.90;;;;;;5031491;28;20450;-72
2023/05/15 11:53:03;;;;;;;46.08;32.35;;;16.30;99.90;;;;;;5033261;28;20025;-72
2023/05/15 11:55:31;;;;;;;47.17;29.73;;;16.40;99.90;;;;;;5032933;28;20021;-72
2023/05/15 11:57:56;;;;;;;40.05;28.45;;;16.40;99.90;;;;;;5033052;28;20029;-72
2023/05/15 12:00:22;;;;;;;30.88;21.35;;;16.40;99.90;;;;;;5032964;28;20099;-73
2023/05/15 12:02:48;;;;;;;22.20;14.32;;;16.40;99.90;;;;;;5033123;28;20116;-72
2023/05/15 12:05:14;;;;;;;17.63;11.80;;;16.50;99.90;;;;;;5032616;28;20071;-73
2023/05/15 12:07:43;;;;;;;17.60;12.00;;;16.40;99.90;;;;;;5033112;28;20026;-73
2023/05/15 12:10:11;;;;;;;14.45;10.40;;;16.40;99.90;;;;;;5032778;28;20411;-72
2023/05/15 12:12:41;;;;;;;18.48;11.90;;;16.40;99.90;;;;;;5033145;28;20109;-72
2023/05/15 12:15:14;;;;;;;15.55;10.93;;;16.50;99.90;;;;;;5031598;28;20026;-73
2023/05/15 12:17:40;;;;;;;16.08;10.52;;;16.40;99.90;;;;;;5030980;28;20028;-73
2023/05/15 12:20:08;;;;;;;11.85;7.57;;;16.40;99.90;;;;;;5032469;28;20017;-72
2023/05/15 12:22:38;;;;;;;6.95;4.60;;;16.40;99.90;;;;;;5032753;28;20065;-72
2023/05/15 12:25:06;;;;;;;6.57;4.32;;;16.40;99.90;;;;;;5032709;28;20049;-72
2023/05/15 12:27:32;;;;;;;8.85;4.35;;;16.50;99.90;;;;;;5032798;28;20040;-73
2023/05/15 12:29:58;;;;;;;15.25;7.78;;;16.40;99.90;;;;;;5032755;28;20025;-72